createdAt,value
2019-03-08T00:06:26.449Z,78.31
2019-03-08T00:11:54.871Z,79.00
2019-03-08T00:17:19.755Z,78.41
2019-03-08T00:22:52.856Z,78.51
2019-03-08T00:28:17.165Z,78.39
2019-03-08T00:33:38.583Z,78.73
2019-03-08T00:39:00.139Z,79.26
2019-03-08T00:44:22.291Z,78.49
2019-03-08T00:49:44.243Z,79.41
2019-03-08T00:55:24.472Z,79.48
2019-03-08T01:00:47.864Z,79.25
2019-03-08T01:06:10.504Z,79.98
2019-03-08T01:11:35.250Z,79.49
2019-03-08T01:16:57.967Z,78.66
2019-03-08T01:22:22.136Z,78.87
2019-03-08T01:28:00.751Z,79.12
2019-03-08T01:33:23.423Z,79.54
2019-03-08T01:38:46.028Z,80.10
2019-03-08T01:44:07.981Z,80.02
2019-03-08T01:49:29.495Z,79.89
2019-03-08T01:54:53.804Z,79.61
2019-03-08T02:00:19.166Z,79.49
2019-03-08T02:05:49.121Z,79.51
2019-03-08T02:11:12.693Z,80.13
2019-03-08T02:16:34.043Z,80.90
2019-03-08T02:21:57.063Z,81.24
2019-03-08T02:27:20.800Z,80.79
2019-03-08T02:32:45.350Z,80.88
2019-03-08T02:38:09.115Z,81.38
2019-03-08T02:43:32.287Z,81.04
2019-03-08T02:48:53.646Z,81.02
2019-03-08T02:54:15.950Z,81.18
2019-03-08T02:59:37.878Z,81.38
2019-03-08T03:05:11.292Z,81.72
2019-03-08T03:10:50.428Z,82.50
2019-03-08T03:16:13.317Z,82.15
2019-03-08T03:21:35.238Z,82.07
2019-03-08T03:27:01.780Z,82.12
2019-03-08T03:32:24.456Z,82.26
2019-03-08T03:37:47.556Z,82.50
2019-03-08T03:43:09.598Z,83.46
2019-03-08T03:48:32.636Z,83.66
2019-03-08T03:53:57.505Z,83.56
2019-03-08T03:59:20.272Z,83.26
2019-03-08T04:04:44.050Z,83.77
2019-03-08T04:15:58.294Z,83.30
2019-03-08T04:21:35.460Z,83.83
2019-03-08T04:27:03.594Z,83.45
2019-03-08T04:32:34.214Z,83.81
2019-03-08T04:37:56.185Z,83.94
2019-03-08T04:43:42.687Z,83.70
2019-03-08T04:49:03.898Z,83.53
2019-03-08T04:54:26.518Z,84.45
2019-03-08T04:59:53.475Z,83.85
2019-03-08T05:05:17.204Z,83.63
2019-03-08T05:10:46.416Z,83.76
2019-03-08T05:16:11.453Z,83.87
2019-03-08T05:21:33.522Z,83.73
2019-03-08T05:26:57.218Z,83.37
2019-03-08T05:32:21.077Z,82.83
2019-03-08T05:37:42.536Z,82.13
2019-03-08T05:43:05.105Z,81.89
2019-03-08T05:48:29.186Z,81.69
2019-03-08T05:53:53.739Z,81.29
2019-03-08T05:59:14.882Z,80.67
2019-03-08T06:04:35.891Z,79.68
2019-03-08T06:09:58.248Z,79.27
2019-03-08T06:15:19.377Z,78.78
2019-03-08T06:20:48.190Z,77.95
2019-03-08T06:26:12.129Z,77.72
2019-03-08T06:31:35.580Z,76.96
2019-03-08T06:37:12.788Z,76.08
2019-03-08T06:42:34.197Z,75.00
2019-03-08T06:47:59.783Z,74.63
2019-03-08T06:53:32.029Z,73.50
2019-03-08T06:59:18.130Z,73.11
2019-03-08T07:04:39.729Z,72.81
2019-03-08T07:10:00.528Z,70.71
2019-03-08T07:15:23.501Z,68.84
2019-03-08T07:21:06.225Z,69.04
2019-03-08T07:26:58.680Z,69.53
2019-03-08T07:32:44.447Z,68.56
2019-03-08T07:38:40.447Z,68.27
2019-03-08T07:44:34.288Z,69.19
2019-03-08T07:50:15.624Z,67.84
2019-03-08T08:02:10.731Z,67.37
2019-03-08T08:07:39.393Z,66.70
2019-03-08T08:13:20.932Z,66.53
2019-03-08T08:19:01.548Z,65.76
2019-03-08T08:24:27.212Z,64.88
2019-03-08T08:29:59.229Z,64.19
2019-03-08T08:35:44.310Z,63.02
2019-03-08T08:41:24.513Z,61.76
2019-03-08T08:47:23.669Z,60.73
2019-03-08T08:53:07.450Z,59.94
2019-03-08T08:58:49.503Z,58.76
2019-03-08T09:04:38.363Z,59.38
2019-03-08T09:10:28.572Z,58.55
2019-03-08T09:16:08.801Z,58.97
2019-03-08T09:21:55.612Z,58.83
2019-03-08T09:27:31.449Z,57.29
2019-03-08T09:33:12.050Z,56.70
2019-03-08T09:38:43.041Z,55.76
2019-03-08T09:44:23.929Z,56.61
2019-03-08T09:50:12.700Z,56.41
2019-03-08T09:55:40.264Z,55.79
2019-03-08T10:01:31.331Z,56.32
2019-03-08T10:07:14.362Z,55.39
2019-03-08T10:12:50.168Z,55.15
2019-03-08T10:18:40.312Z,55.22
2019-03-08T10:24:08.829Z,53.38
2019-03-08T10:29:49.847Z,52.74
2019-03-08T10:35:29.821Z,52.66
2019-03-08T10:41:15.293Z,51.61
2019-03-08T10:46:50.683Z,50.20
2019-03-08T10:52:21.247Z,50.00
2019-03-08T10:58:15.933Z,49.62
2019-03-08T11:03:52.497Z,48.71
2019-03-08T11:09:29.566Z,47.86
2019-03-08T11:15:09.232Z,47.82
2019-03-08T11:20:50.270Z,47.24
2019-03-08T11:26:28.060Z,47.44
2019-03-08T11:31:55.607Z,47.37
2019-03-08T11:37:27.907Z,47.71
2019-03-08T11:43:15.335Z,47.61
2019-03-08T11:48:55.634Z,47.06
2019-03-08T11:54:45.421Z,46.33
2019-03-08T12:00:25.078Z,46.80
2019-03-08T12:06:08.100Z,46.38
2019-03-08T12:12:07.826Z,46.43
2019-03-08T12:18:06.989Z,45.79
2019-03-08T12:23:45.587Z,45.41
2019-03-08T12:29:21.301Z,44.68
2019-03-08T12:34:51.752Z,43.65
2019-03-08T12:40:32.506Z,43.65
2019-03-08T12:46:19.770Z,44.98
2019-03-08T12:51:58.719Z,45.46
2019-03-08T12:57:40.240Z,44.71
2019-03-08T13:03:18.008Z,43.92
2019-03-08T13:08:59.812Z,43.91
2019-03-08T13:14:23.864Z,43.62
2019-03-08T13:19:47.681Z,43.17
2019-03-08T13:25:09.378Z,43.52
2019-03-08T13:30:33.164Z,44.07
2019-03-08T13:35:54.987Z,44.50
2019-03-08T13:41:16.326Z,45.27
2019-03-08T13:46:37.819Z,45.61
2019-03-08T13:51:59.931Z,44.36
2019-03-08T13:57:21.681Z,44.10
2019-03-08T14:02:42.702Z,44.13
2019-03-08T14:08:04.236Z,43.55
2019-03-08T14:13:27.204Z,43.31
2019-03-08T14:18:48.849Z,43.63
2019-03-08T14:24:11.373Z,43.48
2019-03-08T14:29:33.104Z,43.97
2019-03-08T14:34:55.304Z,43.97
2019-03-08T14:40:29.042Z,43.90
2019-03-08T14:46:12.859Z,43.96
2019-03-08T14:51:36.060Z,44.35
2019-03-08T14:56:57.814Z,44.35
2019-03-08T15:02:19.773Z,45.00
2019-03-08T15:07:42.131Z,45.00
2019-03-08T15:13:12.890Z,45.09
2019-03-08T15:18:37.127Z,45.57
2019-03-08T15:24:01.662Z,47.26
2019-03-08T15:29:23.576Z,47.74
2019-03-08T15:34:45.459Z,49.77
2019-03-08T15:40:09.533Z,50.83
2019-03-08T15:45:30.388Z,51.20
2019-03-08T15:50:53.961Z,52.43
2019-03-08T15:56:18.184Z,52.71
2019-03-08T16:01:39.667Z,53.20
2019-03-08T16:07:01.288Z,54.07
2019-03-08T16:12:22.234Z,53.65
2019-03-08T16:17:43.409Z,54.16
2019-03-08T16:23:15.914Z,53.93
2019-03-08T16:28:37.137Z,55.42
2019-03-08T16:33:59.599Z,54.49
2019-03-08T16:39:33.898Z,55.73
2019-03-08T16:45:17.135Z,56.00
2019-03-08T16:51:15.803Z,56.26
2019-03-08T16:56:45.481Z,55.74
2019-03-08T17:02:36.236Z,56.33
2019-03-08T17:08:03.356Z,57.63
2019-03-08T17:13:50.140Z,57.32
2019-03-08T17:19:27.024Z,57.55
2019-03-08T17:25:16.758Z,57.79
2019-03-08T17:31:05.175Z,57.59
2019-03-08T17:36:48.475Z,57.72
2019-03-08T17:42:38.804Z,58.29
2019-03-08T17:48:18.543Z,58.46
2019-03-08T17:54:01.699Z,58.11
2019-03-08T17:59:31.257Z,58.16
2019-03-08T18:05:13.133Z,58.51
2019-03-08T18:11:00.449Z,58.60
2019-03-08T18:16:38.546Z,58.43
2019-03-08T18:22:12.829Z,58.19
2019-03-08T18:27:59.383Z,57.68
2019-03-08T18:33:43.337Z,57.70
2019-03-08T18:39:28.380Z,58.24
2019-03-08T18:45:18.906Z,58.94
2019-03-08T18:50:53.643Z,59.45
2019-03-08T18:56:33.209Z,59.80
2019-03-08T19:02:29.312Z,60.43
2019-03-08T19:08:19.487Z,61.45
2019-03-08T19:14:00.672Z,62.34
2019-03-08T19:19:41.799Z,62.57
2019-03-08T19:25:17.885Z,62.83
2019-03-08T19:31:07.794Z,62.92
2019-03-08T19:36:46.880Z,62.98
2019-03-08T19:42:27.332Z,62.59
2019-03-08T19:48:17.075Z,63.25
2019-03-08T19:53:53.577Z,64.04
2019-03-08T19:59:39.673Z,64.25
2019-03-08T20:05:21.940Z,64.39
2019-03-08T20:11:04.233Z,64.87
2019-03-08T20:16:45.188Z,65.01
2019-03-08T20:22:35.274Z,65.12
2019-03-08T20:28:13.256Z,65.78
2019-03-08T20:33:48.759Z,65.59
2019-03-08T20:39:38.997Z,66.19
2019-03-08T20:45:07.585Z,65.79
2019-03-08T20:50:30.928Z,66.27
2019-03-08T20:55:52.164Z,67.21
2019-03-08T21:01:13.670Z,67.41
2019-03-08T21:06:46.289Z,67.66
2019-03-08T21:12:07.528Z,67.84
2019-03-08T21:17:28.833Z,68.60
2019-03-08T21:22:51.267Z,69.30
2019-03-08T21:28:12.137Z,69.84
2019-03-08T21:33:33.181Z,70.48
2019-03-08T21:38:54.467Z,71.11
2019-03-08T21:44:17.603Z,71.36
2019-03-08T21:49:39.524Z,72.03
2019-03-08T21:55:02.223Z,72.53
2019-03-08T22:00:23.656Z,72.98
2019-03-08T22:05:44.601Z,73.51
2019-03-08T22:11:34.221Z,74.09
2019-03-08T22:16:56.408Z,74.46
2019-03-08T22:22:17.241Z,74.84
2019-03-08T22:27:39.209Z,75.82
2019-03-08T22:33:00.200Z,75.75
2019-03-08T22:38:21.490Z,75.88
2019-03-08T22:43:42.609Z,76.03
2019-03-08T22:49:03.929Z,75.62
2019-03-08T22:54:25.188Z,76.29
2019-03-08T22:59:46.979Z,76.52
2019-03-08T23:05:08.338Z,76.62
2019-03-08T23:10:29.728Z,76.69
2019-03-08T23:15:52.013Z,76.65
2019-03-08T23:21:16.174Z,76.52
2019-03-08T23:26:58.212Z,76.62
2019-03-08T23:32:35.947Z,76.62
2019-03-08T23:37:57.009Z,76.81
2019-03-08T23:43:19.308Z,76.73
2019-03-08T23:48:40.549Z,77.03
2019-03-08T23:54:03.720Z,76.90
2019-03-08T23:59:24.900Z,76.51
